Time;durP1;ratioP1;P1;durP2;ratioP2;P2;SDS_P1;SDS_P2;PMS_P1;PMS_P2;Temp;Humidity;BMP_temperature;BMP_pressure;BME280_temperature;BME280_humidity;BME280_pressure;Samples;Min_cycle;Max_cycle;Signal;HPM_P1;HPM_P2
2022/07/16 00:03:41;;;;;;;7.47;2.42;;;15.10;99.90;;;;;;5069724;28;20187;-74
2022/07/16 00:06:06;;;;;;;4.65;2.55;;;15.20;99.90;;;;;;5067853;28;20531;-74
2022/07/16 00:08:32;;;;;;;7.10;2.47;;;15.20;99.90;;;;;;5069742;28;20089;-74
2022/07/16 00:10:58;;;;;;;5.90;2.30;;;15.20;99.90;;;;;;5069387;28;20105;-74
2022/07/16 00:13:23;;;;;;;5.75;2.42;;;15.20;99.90;;;;;;5071680;28;20396;-74
2022/07/16 00:15:49;;;;;;;5.75;2.40;;;15.20;99.90;;;;;;5073413;28;20036;-74
2022/07/16 00:20:59;;;;;;;7.35;2.13;;;15.40;99.90;;;;;;5073718;28;20609;-74
2022/07/16 00:23:24;;;;;;;6.07;2.10;;;15.30;99.90;;;;;;5072315;28;20120;-74
2022/07/16 00:25:50;;;;;;;7.45;2.63;;;15.30;99.90;;;;;;5073299;28;20501;-77
2022/07/16 00:28:16;;;;;;;4.75;2.05;;;15.30;99.90;;;;;;5071892;28;20123;-76
2022/07/16 00:30:42;;;;;;;8.27;2.63;;;15.30;99.90;;;;;;5071712;28;20131;-77
2022/07/16 00:33:08;;;;;;;4.95;3.03;;;15.30;99.90;;;;;;5073473;28;20123;-76
2022/07/16 00:35:33;;;;;;;7.13;2.78;;;15.30;99.90;;;;;;5073419;28;20040;-77
2022/07/16 00:37:59;;;;;;;6.82;2.33;;;15.40;99.90;;;;;;5071837;28;20080;-76
2022/07/16 00:40:25;;;;;;;6.88;2.55;;;15.60;99.90;;;;;;5073741;28;20115;-75
2022/07/16 00:42:50;;;;;;;13.30;3.08;;;15.40;99.90;;;;;;5073345;28;20443;-77
2022/07/16 00:45:16;;;;;;;6.95;3.47;;;15.30;99.90;;;;;;5072826;28;20178;-77
2022/07/16 00:47:42;;;;;;;7.15;2.60;;;15.40;99.90;;;;;;5073154;28;20048;-77
2022/07/16 00:50:08;;;;;;;7.38;2.90;;;15.30;99.90;;;;;;5071029;28;20113;-77
2022/07/16 00:52:35;;;;;;;6.22;2.17;;;15.30;99.90;;;;;;5073079;28;20052;-78
2022/07/16 00:55:01;;;;;;;5.80;2.10;;;15.30;99.90;;;;;;5073170;28;20056;-79
2022/07/16 00:57:27;;;;;;;5.10;1.20;;;15.30;99.90;;;;;;5073166;28;20055;-79
2022/07/16 00:59:52;;;;;;;4.00;1.50;;;15.30;99.90;;;;;;5071489;28;20049;-79
2022/07/16 01:02:18;;;;;;;3.47;1.60;;;15.30;99.90;;;;;;5072908;28;20254;-78
2022/07/16 01:04:45;;;;;;;5.80;1.50;;;15.30;99.90;;;;;;5072905;28;20090;-76
2022/07/16 01:07:11;;;;;;;6.88;1.88;;;15.50;99.90;;;;;;5072766;28;20125;-78
2022/07/16 01:09:37;;;;;;;5.40;1.80;;;15.30;99.90;;;;;;5071980;28;20127;-77
2022/07/16 01:12:04;;;;;;;4.07;1.30;;;15.30;99.90;;;;;;5071405;28;20071;-77
2022/07/16 01:14:30;;;;;;;9.00;1.10;;;15.30;99.90;;;;;;5073223;28;20048;-78
2022/07/16 01:16:56;;;;;;;3.97;1.50;;;15.30;99.90;;;;;;5072674;28;20041;-78
2022/07/16 01:19:22;;;;;;;9.32;1.63;;;15.30;99.90;;;;;;5072872;28;20051;-79
2022/07/16 01:21:47;;;;;;;8.35;1.60;;;15.50;99.90;;;;;;5069843;28;20052;-77
2022/07/16 01:24:13;;;;;;;5.05;1.45;;;15.50;99.90;;;;;;5070789;28;20060;-76
2022/07/16 01:26:39;;;;;;;4.22;1.40;;;15.20;99.90;;;;;;5072415;28;20059;-79
2022/07/16 01:29:04;;;;;;;6.25;1.30;;;15.30;99.90;;;;;;5072749;28;20044;-78
2022/07/16 01:31:30;;;;;;;6.57;1.48;;;15.30;99.90;;;;;;5070661;28;20075;-78
2022/07/16 01:36:40;;;;;;;12.07;2.50;;;15.20;99.90;;;;;;5072612;28;20075;-78
2022/07/16 01:39:05;;;;;;;8.93;1.92;;;15.20;99.90;;;;;;5071362;28;20391;-78
2022/07/16 01:41:31;;;;;;;9.88;1.70;;;15.30;99.90;;;;;;5070791;28;20037;-78
2022/07/16 01:43:57;;;;;;;7.13;1.35;;;15.30;99.90;;;;;;5072498;28;20071;-78
2022/07/16 01:46:23;;;;;;;7.78;1.60;;;15.30;99.90;;;;;;5072149;28;20101;-85
2022/07/16 01:48:48;;;;;;;7.40;1.73;;;15.30;99.90;;;;;;5072056;28;20068;-78
2022/07/16 01:51:14;;;;;;;6.97;1.63;;;15.20;99.90;;;;;;5071965;28;20131;-77
2022/07/16 01:53:40;;;;;;;9.65;2.13;;;15.20;99.90;;;;;;5057122;28;20084;-78
2022/07/16 01:56:06;;;;;;;5.40;1.70;;;15.20;99.90;;;;;;5051685;28;20123;-78
2022/07/16 01:58:32;;;;;;;10.60;2.22;;;15.20;99.90;;;;;;5051884;28;20037;-76
2022/07/16 02:00:58;;;;;;;9.27;2.17;;;15.20;99.90;;;;;;5055903;28;20090;-79
2022/07/16 02:03:23;;;;;;;11.95;2.30;;;15.20;99.90;;;;;;5071426;28;20056;-78
2022/07/16 02:05:49;;;;;;;9.63;2.40;;;15.30;99.90;;;;;;5071795;28;20083;-78
2022/07/16 02:08:15;;;;;;;8.98;2.35;;;15.20;99.90;;;;;;5071655;28;20052;-78
2022/07/16 02:10:41;;;;;;;10.38;2.13;;;15.30;99.90;;;;;;5071190;28;20099;-79
2022/07/16 02:13:07;;;;;;;6.95;1.80;;;15.10;99.90;;;;;;5059799;28;20461;-78
2022/07/16 02:15:33;;;;;;;13.02;1.85;;;15.10;99.90;;;;;;5051625;28;20045;-77
2022/07/16 02:17:59;;;;;;;8.27;1.90;;;15.00;99.90;;;;;;5051132;28;20404;-75
2022/07/16 02:20:25;;;;;;;4.28;1.50;;;14.90;99.90;;;;;;5059744;28;20037;-77
2022/07/16 02:22:54;;;;;;;8.15;1.58;;;14.90;99.90;;;;;;5067833;28;20056;-74
2022/07/16 02:25:19;;;;;;;4.40;1.17;;;14.90;99.90;;;;;;5068969;28;20087;-78
2022/07/16 02:30:29;;;;;;;14.60;1.73;;;14.90;99.90;;;;;;5070964;28;20051;-76
2022/07/16 02:32:55;;;;;;;6.55;1.77;;;14.90;99.90;;;;;;5069127;28;20450;-76
2022/07/16 02:35:21;;;;;;;8.05;1.55;;;14.90;99.90;;;;;;5070700;28;20107;-77
2022/07/16 02:37:46;;;;;;;7.47;1.40;;;14.80;99.90;;;;;;5070030;28;20048;-77
2022/07/16 02:40:13;;;;;;;5.75;1.58;;;14.80;99.90;;;;;;5070023;28;20036;-74
2022/07/16 02:42:39;;;;;;;6.47;1.70;;;14.80;99.90;;;;;;5069698;28;20071;-74
2022/07/16 02:45:07;;;;;;;4.68;1.40;;;14.70;99.90;;;;;;5070206;28;20484;-76
2022/07/16 02:47:33;;;;;;;4.07;1.35;;;14.70;99.90;;;;;;5070477;28;20040;-75
2022/07/16 02:49:59;;;;;;;7.30;1.25;;;14.70;99.90;;;;;;5070299;28;20400;-75
2022/07/16 02:52:24;;;;;;;7.22;1.60;;;14.60;99.90;;;;;;5070766;28;20052;-75
2022/07/16 02:54:50;;;;;;;4.13;1.20;;;14.80;99.90;;;;;;5067936;28;20042;-75
2022/07/16 02:57:16;;;;;;;8.40;1.63;;;14.60;99.90;;;;;;5070485;28;20048;-77
2022/07/16 02:59:42;;;;;;;7.38;1.25;;;14.50;99.90;;;;;;5069232;28;20044;-77
2022/07/16 03:02:07;;;;;;;7.13;1.10;;;14.50;99.90;;;;;;5070520;28;20032;-76
2022/07/16 03:04:33;;;;;;;9.45;1.48;;;14.40;99.90;;;;;;5068421;28;20047;-75
2022/07/16 03:06:59;;;;;;;8.80;1.42;;;14.40;99.90;;;;;;5070501;28;20093;-77
2022/07/16 03:09:24;;;;;;;9.85;1.60;;;14.40;99.90;;;;;;5069525;28;20098;-77
2022/07/16 03:11:50;;;;;;;4.53;1.33;;;14.30;99.90;;;;;;5069308;28;20060;-75
2022/07/16 03:14:15;;;;;;;4.40;1.27;;;14.30;99.90;;;;;;5069649;28;20039;-76
2022/07/16 03:16:41;;;;;;;11.20;1.60;;;14.20;99.90;;;;;;5057724;28;20053;-78
2022/07/16 03:19:07;;;;;;;4.32;1.40;;;14.20;99.90;;;;;;5050032;28;20128;-77
2022/07/16 03:21:32;;;;;;;5.53;1.83;;;14.20;99.90;;;;;;5050351;28;20076;-77
2022/07/16 03:23:58;;;;;;;7.88;1.75;;;14.10;99.90;;;;;;5050146;28;20060;-75
2022/07/16 03:26:23;;;;;;;6.78;1.35;;;14.00;99.90;;;;;;5054506;28;20037;-76
2022/07/16 03:28:49;;;;;;;7.30;1.77;;;13.90;99.90;;;;;;5057942;28;20077;-77
2022/07/16 03:31:17;;;;;;;5.00;1.40;;;13.90;99.90;;;;;;5048823;28;20044;-78
2022/07/16 03:33:43;;;;;;;4.25;1.58;;;13.90;99.90;;;;;;5048605;28;20624;-76
2022/07/16 03:36:09;;;;;;;6.63;1.88;;;14.10;99.90;;;;;;5049077;28;20091;-77
2022/07/16 03:41:19;;;;;;;7.65;1.40;;;13.90;99.90;;;;;;5066144;28;20120;-77
2022/07/16 03:43:45;;;;;;;6.13;1.45;;;13.70;99.90;;;;;;5050138;28;20456;-77
2022/07/16 03:46:13;;;;;;;6.63;1.70;;;13.90;99.90;;;;;;5051113;28;20052;-77
2022/07/16 03:48:42;;;;;;;5.47;1.58;;;13.60;99.90;;;;;;5050718;28;20045;-77
2022/07/16 03:51:08;;;;;;;4.80;1.50;;;13.60;99.90;;;;;;5049535;28;20052;-76
2022/07/16 03:53:34;;;;;;;7.22;1.85;;;13.60;99.90;;;;;;5049791;28;20044;-75
2022/07/16 03:56:00;;;;;;;6.55;1.73;;;13.70;99.90;;;;;;5051635;28;20053;-79
2022/07/16 03:58:28;;;;;;;12.95;2.00;;;13.60;99.90;;;;;;5067945;28;20106;-78
2022/07/16 04:00:55;;;;;;;9.23;2.22;;;13.50;99.90;;;;;;5070246;28;20067;-75
2022/07/16 04:03:20;;;;;;;8.52;1.70;;;13.60;99.90;;;;;;5070032;28;20048;-79
2022/07/16 04:05:46;;;;;;;6.70;2.03;;;13.60;99.90;;;;;;5066312;28;20084;-77
2022/07/16 04:08:12;;;;;;;14.90;2.05;;;13.90;99.90;;;;;;5068013;28;20441;-77
2022/07/16 04:10:38;;;;;;;6.00;1.83;;;13.50;99.90;;;;;;5067967;28;20586;-78
2022/07/16 04:13:04;;;;;;;6.57;1.50;;;13.60;99.90;;;;;;5067796;28;20496;-78
2022/07/16 04:15:30;;;;;;;6.47;1.70;;;13.50;99.90;;;;;;5055394;28;20055;-80
2022/07/16 04:17:56;;;;;;;10.52;1.75;;;13.60;99.90;;;;;;5049713;28;20044;-78
2022/07/16 04:20:22;;;;;;;8.73;2.00;;;13.60;99.90;;;;;;5050645;28;20037;-77
2022/07/16 04:22:48;;;;;;;10.43;1.80;;;13.50;99.90;;;;;;5048094;28;20093;-78
2022/07/16 04:25:13;;;;;;;8.52;1.70;;;13.60;99.90;;;;;;5049388;28;20041;-75
2022/07/16 04:27:43;;;;;;;7.85;1.73;;;13.60;99.90;;;;;;5048365;28;20049;-77
2022/07/16 04:30:09;;;;;;;7.57;1.58;;;13.60;99.90;;;;;;5050720;28;20052;-76
2022/07/16 04:32:37;;;;;;;6.95;1.60;;;13.60;99.90;;;;;;5049484;28;20045;-77
2022/07/16 04:35:03;;;;;;;9.73;1.73;;;13.60;99.90;;;;;;5048307;28;20049;-78
2022/07/16 04:37:29;;;;;;;13.85;2.70;;;13.60;99.90;;;;;;5049471;28;20053;-78
2022/07/16 04:39:54;;;;;;;6.43;1.35;;;13.60;99.90;;;;;;5050589;28;20053;-77
2022/07/16 04:42:20;;;;;;;10.15;1.98;;;13.70;99.90;;;;;;5049653;28;20049;-78
2022/07/16 04:44:46;;;;;;;8.82;1.40;;;13.70;99.90;;;;;;5048222;28;20067;-79
2022/07/16 04:47:11;;;;;;;10.75;1.50;;;13.70;99.90;;;;;;5049511;28;20048;-81
2022/07/16 04:49:37;;;;;;;8.93;1.52;;;13.70;99.90;;;;;;5049680;28;20053;-78
2022/07/16 04:52:04;;;;;;;10.20;1.63;;;13.70;99.90;;;;;;5049048;28;20045;-76
2022/07/16 04:54:30;;;;;;;8.85;1.48;;;13.70;99.90;;;;;;5049574;28;20048;-77
2022/07/16 04:56:55;;;;;;;7.35;1.40;;;14.00;99.90;;;;;;5049608;28;20049;-78
2022/07/16 04:59:21;;;;;;;8.00;1.38;;;13.70;99.90;;;;;;5050632;28;20124;-78
2022/07/16 05:01:47;;;;;;;8.88;1.30;;;13.80;99.90;;;;;;5052604;28;20049;-78
2022/07/16 05:04:12;;;;;;;4.65;1.20;;;14.00;99.90;;;;;;5053003;28;20051;-79
2022/07/16 05:06:38;;;;;;;5.05;1.10;;;13.70;99.90;;;;;;5053023;28;20053;-78
2022/07/16 05:09:07;;;;;;;6.20;1.15;;;13.70;99.90;;;;;;5051373;28;20435;-75
2022/07/16 05:11:33;;;;;;;5.03;1.27;;;14.10;99.90;;;;;;5052348;28;20128;-76
2022/07/16 05:14:23;;;;;;;4.00;1.00;;;13.80;99.90;;;;;;5047080;28;20147;-78
2022/07/16 05:17:01;;;;;;;8.77;1.30;;;13.70;99.90;;;;;;5072328;28;20495;-78
2022/07/16 05:19:26;;;;;;;6.68;1.50;;;14.10;99.90;;;;;;5071206;28;20064;-78
2022/07/16 05:21:52;;;;;;;10.00;1.85;;;13.90;99.90;;;;;;5070460;28;20044;-74
2022/07/16 05:24:18;;;;;;;8.68;1.30;;;14.50;99.90;;;;;;5070223;28;20137;-76
2022/07/16 05:26:44;;;;;;;8.77;1.30;;;13.70;99.90;;;;;;5072306;28;20510;-77
2022/07/16 05:29:09;;;;;;;12.95;2.50;;;14.20;99.90;;;;;;5057629;28;20041;-80
2022/07/16 05:31:35;;;;;;;8.98;1.33;;;14.10;99.90;;;;;;5072048;28;20041;-75
2022/07/16 05:34:01;;;;;;;4.78;1.30;;;14.10;99.90;;;;;;5069891;28;20079;-78
2022/07/16 05:36:26;;;;;;;6.10;0.90;;;14.20;99.90;;;;;;5072047;28;20696;-74
2022/07/16 05:38:52;;;;;;;6.15;1.00;;;14.30;99.90;;;;;;5071652;28;20048;-77
2022/07/16 05:41:18;;;;;;;7.43;1.13;;;14.40;99.90;;;;;;5072249;28;20053;-79
2022/07/16 05:43:43;;;;;;;4.93;0.90;;;14.40;99.90;;;;;;5070315;28;20040;-75
2022/07/16 05:46:09;;;;;;;6.50;1.05;;;14.40;99.90;;;;;;5072074;28;20049;-76
2022/07/16 05:48:34;;;;;;;9.82;1.40;;;14.50;99.90;;;;;;5072027;28;20050;-75
2022/07/16 05:51:00;;;;;;;14.30;1.70;;;14.50;99.90;;;;;;5070671;28;20059;-78
2022/07/16 05:53:26;;;;;;;7.97;1.25;;;14.60;99.90;;;;;;5069751;28;20506;-78
2022/07/16 05:55:51;;;;;;;9.10;1.00;;;14.70;99.90;;;;;;5070256;28;20147;-77
2022/07/16 05:58:17;;;;;;;8.48;1.05;;;14.80;99.90;;;;;;5070012;28;20732;-78
2022/07/16 06:00:43;;;;;;;7.57;0.88;;;14.80;99.90;;;;;;5069775;28;20054;-79
2022/07/16 06:03:09;;;;;;;7.32;0.82;;;14.90;99.90;;;;;;5071425;28;20040;-77
2022/07/16 06:05:35;;;;;;;7.55;1.10;;;15.00;99.90;;;;;;5068909;28;20490;-77
2022/07/16 06:08:02;;;;;;;7.35;0.93;;;15.10;99.90;;;;;;5071476;28;20051;-78
2022/07/16 06:10:29;;;;;;;8.63;1.20;;;15.20;99.90;;;;;;5068917;28;20087;-77
2022/07/16 06:12:54;;;;;;;10.25;1.27;;;15.30;99.90;;;;;;5071272;28;20040;-75
2022/07/16 06:15:20;;;;;;;5.93;0.95;;;15.40;99.90;;;;;;5069568;28;20427;-76
2022/07/16 06:17:46;;;;;;;6.95;1.35;;;15.50;99.90;;;;;;5071478;28;20041;-75
2022/07/16 06:20:12;;;;;;;9.38;1.10;;;15.50;99.90;;;;;;5071322;28;20040;-74
2022/07/16 06:22:38;;;;;;;5.97;1.00;;;15.60;99.90;;;;;;5071377;28;20052;-77
2022/07/16 06:25:04;;;;;;;7.82;1.00;;;15.70;99.90;;;;;;5070878;28;20716;-75
2022/07/16 06:27:30;;;;;;;10.30;1.00;;;15.80;99.90;;;;;;5067981;28;20200;-76
2022/07/16 06:29:56;;;;;;;5.50;0.80;;;15.90;99.90;;;;;;5071069;28;20380;-76
2022/07/16 06:32:22;;;;;;;5.70;0.93;;;15.80;99.90;;;;;;5071017;28;20063;-77
2022/07/16 06:34:47;;;;;;;6.53;0.70;;;16.10;99.90;;;;;;5069316;28;20094;-75
2022/07/16 06:37:16;;;;;;;7.03;1.00;;;16.00;99.90;;;;;;5069611;28;20063;-77
2022/07/16 06:39:42;;;;;;;9.52;1.00;;;16.00;99.90;;;;;;5070405;28;20062;-77
2022/07/16 06:42:07;;;;;;;5.82;0.90;;;16.20;99.90;;;;;;5070537;28;20036;-78
2022/07/16 06:44:33;;;;;;;6.88;1.60;;;16.20;99.90;;;;;;5069341;28;20127;-77
2022/07/16 06:46:58;;;;;;;8.07;1.00;;;16.20;99.90;;;;;;5068932;28;20040;-75
2022/07/16 06:49:25;;;;;;;6.35;0.80;;;16.50;99.90;;;;;;5070235;28;20487;-75
2022/07/16 06:51:51;;;;;;;6.47;0.80;;;16.50;99.90;;;;;;5070456;28;20048;-78
2022/07/16 06:54:16;;;;;;;5.80;0.70;;;16.70;99.90;;;;;;5068983;28;20042;-75
2022/07/16 06:56:42;;;;;;;5.07;0.73;;;16.60;99.90;;;;;;5070065;28;20491;-75
2022/07/16 06:59:07;;;;;;;7.28;1.08;;;16.80;99.90;;;;;;5070343;28;20166;-76
2022/07/16 07:01:33;;;;;;;5.90;0.90;;;17.00;99.90;;;;;;5050363;28;20120;-76
2022/07/16 07:03:59;;;;;;;8.40;0.90;;;17.20;99.90;;;;;;5030633;28;20042;-76
2022/07/16 07:06:27;;;;;;;3.63;0.70;;;17.20;99.90;;;;;;5055772;28;20529;-75
2022/07/16 07:08:53;;;;;;;5.45;0.70;;;17.50;99.90;;;;;;5070127;28;20075;-75
2022/07/16 07:11:19;;;;;;;9.35;0.82;;;17.60;99.90;;;;;;5069776;28;20107;-74
2022/07/16 07:13:44;;;;;;;6.60;0.82;;;17.60;99.90;;;;;;5070278;28;20049;-77
2022/07/16 07:16:10;;;;;;;4.20;0.60;;;17.70;99.90;;;;;;5068364;28;20045;-75
2022/07/16 07:18:39;;;;;;;4.10;0.85;;;17.70;99.90;;;;;;5069058;28;20491;-75
2022/07/16 07:21:04;;;;;;;7.28;0.98;;;17.80;99.90;;;;;;5070068;28;20048;-76
2022/07/16 07:23:30;;;;;;;5.57;0.70;;;17.80;99.90;;;;;;5069720;28;20118;-76
2022/07/16 07:25:56;;;;;;;3.17;0.80;;;17.90;99.90;;;;;;5069645;28;20044;-76
2022/07/16 07:28:22;;;;;;;6.25;0.52;;;18.00;99.90;;;;;;5068559;28;20125;-75
2022/07/16 07:30:47;;;;;;;4.38;0.68;;;18.10;99.90;;;;;;5069991;28;20102;-76
2022/07/16 07:33:14;;;;;;;8.25;0.93;;;18.20;99.90;;;;;;5068551;28;20045;-78
2022/07/16 07:35:40;;;;;;;5.82;1.00;;;18.60;99.90;;;;;;5068054;28;20070;-76
2022/07/16 07:38:06;;;;;;;6.22;0.80;;;18.60;99.90;;;;;;5070050;28;20125;-75
2022/07/16 07:40:32;;;;;;;8.23;1.13;;;19.00;99.90;;;;;;5063088;28;20472;-76
2022/07/16 07:43:01;;;;;;;2.63;0.60;;;19.20;99.90;;;;;;5044166;28;20045;-74
2022/07/16 07:45:27;;;;;;;8.02;0.77;;;18.80;99.90;;;;;;5037297;28;20094;-84
2022/07/16 07:47:53;;;;;;;4.70;0.70;;;18.90;99.90;;;;;;5069897;28;20048;-75
2022/07/16 07:50:19;;;;;;;7.45;1.00;;;18.90;99.90;;;;;;5069648;28;20178;-75
2022/07/16 07:52:45;;;;;;;9.05;1.10;;;19.20;99.90;;;;;;5070170;28;20082;-78
2022/07/16 07:55:10;;;;;;;6.25;0.75;;;18.70;99.90;;;;;;5067958;28;20060;-74
2022/07/16 07:57:36;;;;;;;2.72;0.50;;;18.80;99.90;;;;;;5064643;28;20048;-75
2022/07/16 08:00:03;;;;;;;3.00;0.77;;;18.70;99.90;;;;;;5049826;28;20041;-75
2022/07/16 08:02:29;;;;;;;6.80;1.02;;;18.80;99.90;;;;;;5050228;28;20048;-74
2022/07/16 08:04:55;;;;;;;3.58;0.63;;;19.10;99.90;;;;;;5049144;28;20123;-74
2022/07/16 08:07:21;;;;;;;5.00;0.80;;;19.30;99.90;;;;;;5050444;28;20148;-73
2022/07/16 08:09:46;;;;;;;4.15;0.65;;;19.50;99.90;;;;;;5049260;28;20140;-77
2022/07/16 08:12:12;;;;;;;6.47;0.60;;;19.60;99.90;;;;;;5048753;28;20057;-76
2022/07/16 08:14:38;;;;;;;4.82;0.68;;;19.80;99.90;;;;;;5049424;28;20049;-74
2022/07/16 08:17:04;;;;;;;4.05;0.70;;;20.00;99.90;;;;;;5050563;28;20102;-77
2022/07/16 08:19:30;;;;;;;3.40;1.00;;;20.00;99.90;;;;;;5060992;28;20040;-74
2022/07/16 08:21:56;;;;;;;4.00;0.82;;;20.00;99.90;;;;;;5068106;28;20135;-75
2022/07/16 08:27:07;;;;;;;7.30;0.63;;;20.20;99.90;;;;;;5067796;28;20052;-74
2022/07/16 08:29:32;;;;;;;6.60;1.00;;;20.20;99.90;;;;;;5069301;28;20052;-74
2022/07/16 08:31:58;;;;;;;5.30;0.90;;;20.10;99.90;;;;;;5068955;28;20742;-77
2022/07/16 08:34:24;;;;;;;6.63;0.73;;;19.90;99.90;;;;;;5069637;28;20041;-80
2022/07/16 08:36:53;;;;;;;3.40;0.70;;;19.90;99.90;;;;;;5073452;28;20102;-81
2022/07/16 08:39:19;;;;;;;9.48;1.40;;;19.90;99.90;;;;;;5071313;28;20044;-74
2022/07/16 08:41:46;;;;;;;4.95;0.90;;;19.90;99.90;;;;;;5073121;28;20059;-77
2022/07/16 08:44:13;;;;;;;6.28;0.80;;;19.80;99.90;;;;;;5072859;28;20063;-78
2022/07/16 08:46:40;;;;;;;11.55;1.33;;;19.80;99.90;;;;;;5073066;28;20079;-74
2022/07/16 08:49:06;;;;;;;7.32;1.15;;;19.50;99.90;;;;;;5066841;28;20037;-77
2022/07/16 08:51:34;;;;;;;6.70;0.73;;;19.50;99.90;;;;;;5051390;28;20514;-79
2022/07/16 08:54:05;;;;;;;7.18;1.38;;;19.40;99.90;;;;;;5052992;28;20041;-76
2022/07/16 08:56:32;;;;;;;5.13;0.63;;;19.50;99.90;;;;;;5052862;28;20049;-76
2022/07/16 08:58:59;;;;;;;8.00;0.75;;;19.40;99.90;;;;;;5052053;28;20127;-74
2022/07/16 09:01:29;;;;;;;8.02;1.00;;;19.30;99.90;;;;;;5052479;28;20051;-76
2022/07/16 09:03:59;;;;;;;5.15;0.85;;;19.70;99.90;;;;;;5052488;28;20116;-74
2022/07/16 09:06:26;;;;;;;6.47;1.17;;;20.00;99.90;;;;;;5050626;28;20136;-75
2022/07/16 09:08:53;;;;;;;5.38;0.95;;;20.30;99.90;;;;;;5053500;28;20045;-79
2022/07/16 09:11:28;;;;;;;7.60;1.25;;;20.50;99.90;;;;;;5051241;28;20061;-76
2022/07/16 09:14:04;;;;;;;6.85;1.58;;;20.10;99.90;;;;;;5052536;28;20055;-80
2022/07/16 09:16:39;;;;;;;6.07;1.30;;;20.30;99.90;;;;;;5052319;28;20102;-75
2022/07/16 09:19:15;;;;;;;15.30;0.90;;;20.20;99.90;;;;;;5053683;28;20041;-76
2022/07/16 09:22:04;;;;;;;4.82;0.73;;;19.80;99.40;;;;;;5052616;28;20052;-78
2022/07/16 09:24:38;;;;;;;4.63;0.68;;;19.60;99.60;;;;;;5061875;28;20040;-80
2022/07/16 09:27:14;;;;;;;4.17;0.97;;;19.90;98.60;;;;;;5052205;28;20052;-75
2022/07/16 09:29:54;;;;;;;7.57;1.02;;;20.30;99.90;;;;;;5051505;28;20713;-77
2022/07/16 09:32:36;;;;;;;6.85;0.90;;;20.60;99.50;;;;;;5052043;28;20496;-78
2022/07/16 09:35:10;;;;;;;9.23;1.13;;;20.80;98.80;;;;;;5051075;28;20045;-79
2022/07/16 09:37:51;;;;;;;;;;;20.90;98.90;;;;;;5052143;28;20068;-76
2022/07/16 09:40:38;;;;;;;5.40;0.80;;;21.00;98.50;;;;;;5053165;28;19931;-77
2022/07/16 09:43:11;;;;;;;7.22;0.98;;;21.20;99.00;;;;;;5067367;28;20114;-74
2022/07/16 09:45:39;;;;;;;7.55;0.95;;;21.50;99.50;;;;;;5070065;28;20537;-76
2022/07/16 09:48:37;;;;;;;7.60;1.00;;;21.70;99.30;;;;;;5071076;28;20121;-80
2022/07/16 09:51:26;;;;;;;5.80;1.00;;;21.60;99.10;;;;;;5032783;28;20538;-80
2022/07/16 09:53:54;;;;;;;11.25;1.05;;;21.50;98.10;;;;;;5032482;28;20059;-78
2022/07/16 09:56:22;;;;;;;9.70;1.02;;;21.60;99.20;;;;;;5032697;28;20496;-77
2022/07/16 09:58:50;;;;;;;4.53;0.75;;;22.00;99.30;;;;;;5049163;28;20224;-77
2022/07/16 10:01:17;;;;;;;6.55;0.90;;;22.10;99.00;;;;;;5032067;28;20128;-78
2022/07/16 10:03:44;;;;;;;3.28;1.17;;;22.10;98.40;;;;;;5049037;28;20578;-76
2022/07/16 10:06:10;;;;;;;6.20;1.08;;;22.00;97.90;;;;;;5032175;28;20053;-77
2022/07/16 10:08:38;;;;;;;7.10;1.75;;;22.00;98.30;;;;;;5049031;28;20045;-74
2022/07/16 10:11:04;;;;;;;6.47;1.05;;;21.70;98.50;;;;;;5031741;28;20060;-76
2022/07/16 10:13:32;;;;;;;9.73;1.50;;;21.80;98.30;;;;;;5048802;28;20677;-78
2022/07/16 10:15:58;;;;;;;7.95;1.17;;;21.40;97.60;;;;;;5048267;28;20432;-77
2022/07/16 10:18:38;;;;;;;10.40;1.23;;;21.60;98.00;;;;;;5032028;28;20063;-77
2022/07/16 10:21:09;;;;;;;4.32;0.90;;;21.90;98.50;;;;;;5048614;28;20114;-76
2022/07/16 10:23:36;;;;;;;9.23;1.17;;;22.10;98.10;;;;;;5031960;28;20432;-76
2022/07/16 10:26:08;;;;;;;6.35;0.90;;;21.60;97.80;;;;;;5038859;28;20095;-77
2022/07/16 10:28:55;;;;;;;9.05;1.45;;;21.70;98.00;;;;;;5062783;28;20037;-75
2022/07/16 10:31:31;;;;;;;7.25;1.20;;;22.00;97.50;;;;;;5050089;28;20057;-75
2022/07/16 10:34:15;;;;;;;4.95;0.82;;;21.90;97.10;;;;;;5050949;28;20045;-77
2022/07/16 10:36:47;;;;;;;5.97;1.00;;;22.10;97.20;;;;;;5050939;28;20076;-77
2022/07/16 10:39:16;;;;;;;5.55;1.00;;;22.20;97.70;;;;;;5051827;28;20045;-76
2022/07/16 10:41:50;;;;;;;8.15;0.98;;;22.40;97.60;;;;;;5050953;28;20090;-76
2022/07/16 10:44:18;;;;;;;5.30;0.70;;;22.10;96.90;;;;;;5049067;28;20091;-77
2022/07/16 10:47:03;;;;;;;4.85;0.90;;;22.00;97.20;;;;;;5050550;28;20086;-75
2022/07/16 10:49:30;;;;;;;6.32;0.90;;;22.10;96.90;;;;;;5051773;28;20128;-72
2022/07/16 10:52:05;;;;;;;6.43;0.90;;;22.10;97.00;;;;;;5050071;28;20056;-74
2022/07/16 10:54:37;;;;;;;5.78;1.63;;;22.30;97.40;;;;;;5050828;28;20456;-75
2022/07/16 10:57:06;;;;;;;6.70;0.95;;;22.60;97.70;;;;;;5048709;28;20126;-73
2022/07/16 10:59:37;;;;;;;7.95;0.80;;;22.80;97.00;;;;;;5049385;28;20049;-72
2022/07/16 11:02:08;;;;;;;6.75;0.90;;;22.60;95.60;;;;;;5030193;28;20149;-74
2022/07/16 11:04:46;;;;;;;7.55;0.93;;;22.80;96.60;;;;;;5030557;28;20041;-73
2022/07/16 11:07:14;;;;;;;6.65;0.90;;;22.90;96.80;;;;;;5058467;28;20469;-73
2022/07/16 11:09:42;;;;;;;4.97;0.93;;;22.60;96.10;;;;;;5070943;28;20051;-71
2022/07/16 11:12:14;;;;;;;6.07;0.85;;;22.70;96.30;;;;;;5034790;28;20078;-75
2022/07/16 11:14:41;;;;;;;12.45;1.85;;;22.90;96.30;;;;;;5048637;28;20052;-76
2022/07/16 11:17:07;;;;;;;5.10;0.85;;;22.80;95.90;;;;;;5048500;28;20048;-75
2022/07/16 11:19:43;;;;;;;7.20;1.20;;;23.00;96.10;;;;;;5048741;28;20123;-79
2022/07/16 11:22:08;;;;;;;6.63;1.50;;;22.50;95.30;;;;;;5051235;28;20583;-79
2022/07/16 11:24:34;;;;;;;8.10;1.10;;;22.50;96.10;;;;;;5047949;28;20135;-76
2022/07/16 11:27:02;;;;;;;3.78;0.82;;;22.70;96.40;;;;;;5050220;28;20485;-82
2022/07/16 11:29:29;;;;;;;4.82;0.98;;;22.80;95.60;;;;;;5050211;28;20041;-75
2022/07/16 11:31:59;;;;;;;4.57;1.20;;;22.60;95.30;;;;;;5051118;28;20395;-76
2022/07/16 11:34:25;;;;;;;5.50;0.88;;;22.80;95.10;;;;;;5065902;28;20048;-75
2022/07/16 11:36:53;;;;;;;7.22;1.10;;;22.90;94.90;;;;;;5069223;28;20060;-78
2022/07/16 11:39:22;;;;;;;2.90;0.90;;;23.10;95.10;;;;;;5067122;28;20067;-77
2022/07/16 11:41:50;;;;;;;4.68;1.65;;;23.10;94.80;;;;;;5070032;28;20049;-78
2022/07/16 11:44:25;;;;;;;7.30;1.17;;;23.10;95.00;;;;;;5069648;28;20044;-76
2022/07/16 11:47:01;;;;;;;5.70;1.00;;;23.10;95.40;;;;;;5069755;28;20526;-76
2022/07/16 11:49:34;;;;;;;5.70;1.00;;;23.10;94.40;;;;;;5067719;28;20036;-76
2022/07/16 11:52:05;;;;;;;5.80;1.05;;;23.40;95.60;;;;;;5068549;28;20509;-77
2022/07/16 11:54:36;;;;;;;6.60;0.98;;;23.60;94.80;;;;;;5065401;28;20384;-78
2022/07/16 11:57:02;;;;;;;7.47;0.73;;;23.40;93.80;;;;;;5068244;28;20052;-77
2022/07/16 11:59:30;;;;;;;4.13;1.08;;;23.10;94.40;;;;;;5069734;28;20484;-76
2022/07/16 12:02:13;;;;;;;4.43;0.95;;;23.20;94.40;;;;;;5069768;28;20086;-77
2022/07/16 12:04:42;;;;;;;10.25;1.10;;;23.20;94.60;;;;;;5068275;28;20063;-76
2022/07/16 12:07:29;;;;;;;8.70;1.00;;;23.10;94.40;;;;;;5069709;28;20503;-75
2022/07/16 12:09:57;;;;;;;6.35;1.08;;;23.50;94.40;;;;;;5072511;28;20097;-76
2022/07/16 12:12:32;;;;;;;8.85;1.10;;;23.60;94.40;;;;;;5073694;28;20099;-77
2022/07/16 12:14:59;;;;;;;6.40;1.00;;;23.00;94.20;;;;;;5073664;28;20052;-78
2022/07/16 12:17:34;;;;;;;7.25;1.25;;;23.10;94.50;;;;;;5073584;28;20105;-74
2022/07/16 12:20:08;;;;;;;7.43;1.20;;;23.40;94.90;;;;;;5072120;28;20507;-76
2022/07/16 12:22:52;;;;;;;10.00;1.63;;;23.50;94.10;;;;;;5072449;28;20052;-76
2022/07/16 12:25:20;;;;;;;9.10;1.30;;;22.80;93.90;;;;;;5072535;28;20048;-80
2022/07/16 12:27:47;;;;;;;6.07;1.17;;;22.90;94.30;;;;;;5073734;28;20124;-78
2022/07/16 12:30:13;;;;;;;8.73;1.00;;;23.30;95.00;;;;;;5072075;28;20508;-76
2022/07/16 12:32:51;;;;;;;8.25;0.85;;;23.40;95.00;;;;;;5073308;28;20044;-76
2022/07/16 12:35:38;;;;;;;5.95;1.13;;;23.50;93.80;;;;;;5073249;28;20126;-79
2022/07/16 12:38:05;;;;;;;8.07;1.23;;;23.60;94.80;;;;;;5072362;28;20092;-76
2022/07/16 12:40:32;;;;;;;5.95;1.15;;;23.20;94.30;;;;;;5073675;28;20045;-77
2022/07/16 12:43:00;;;;;;;9.70;1.20;;;23.00;94.20;;;;;;5073262;28;20127;-77
2022/07/16 12:45:26;;;;;;;8.93;1.20;;;22.80;94.20;;;;;;5071805;28;20091;-79
2022/07/16 12:47:52;;;;;;;6.40;0.93;;;22.90;94.10;;;;;;5073379;28;20098;-76
2022/07/16 12:50:18;;;;;;;3.40;1.02;;;23.20;94.80;;;;;;5070988;28;20048;-78
2022/07/16 12:52:44;;;;;;;8.25;1.30;;;23.10;94.20;;;;;;5073039;28;20040;-77
2022/07/16 13:00:39;;;;;;;5.43;1.05;;;22.90;94.30;;;;;;5073443;28;20396;-77
2022/07/16 13:03:05;;;;;;;6.90;0.90;;;23.30;94.70;;;;;;5055096;28;20056;-77
2022/07/16 13:05:30;;;;;;;8.27;1.45;;;23.70;94.80;;;;;;5072705;28;20056;-75
2022/07/16 13:07:56;;;;;;;5.40;0.95;;;23.60;94.70;;;;;;5072736;28;20048;-79
2022/07/16 13:10:22;;;;;;;6.88;0.90;;;23.60;93.90;;;;;;5072405;28;20032;-77